sensor_id;sensor_type;location;lat;lon;timestamp;pressure;altitude;pressure_sealevel;temperature;humidity
66681;BME280;53575;51.366;12.350;2023-05-01T00:01:32;100778.41;;;6.02;79.57
66681;BME280;53575;51.366;12.350;2023-05-01T00:03:58;100783.00;;;6.15;79.55
66681;BME280;53575;51.366;12.350;2023-05-01T00:06:23;100773.34;;;6.09;78.05
66681;BME280;53575;51.366;12.350;2023-05-01T00:08:48;100772.78;;;5.82;79.89
66681;BME280;53575;51.366;12.350;2023-05-01T00:11:14;100766.72;;;5.81;80.38
66681;BME280;53575;51.366;12.350;2023-05-01T00:13:40;100767.09;;;5.98;80.49
66681;BME280;53575;51.366;12.350;2023-05-01T00:16:09;100756.59;;;5.92;79.99
66681;BME280;53575;51.366;12.350;2023-05-01T00:18:35;100758.38;;;5.95;80.53
66681;BME280;53575;51.366;12.350;2023-05-01T00:21:01;100751.25;;;5.86;81.82
66681;BME280;53575;51.366;12.350;2023-05-01T00:23:27;100755.56;;;5.84;82.86
66681;BME280;53575;51.366;12.350;2023-05-01T00:25:52;100747.47;;;5.69;82.18
66681;BME280;53575;51.366;12.350;2023-05-01T00:28:18;100742.94;;;5.60;83.23
66681;BME280;53575;51.366;12.350;2023-05-01T00:30:43;100738.63;;;5.60;82.04
66681;BME280;53575;51.366;12.350;2023-05-01T00:33:10;100737.75;;;5.60;82.24
66681;BME280;53575;51.366;12.350;2023-05-01T00:35:35;100736.47;;;5.41;82.73
66681;BME280;53575;51.366;12.350;2023-05-01T00:38:01;100728.69;;;5.40;84.45
66681;BME280;53575;51.366;12.350;2023-05-01T00:40:26;100728.88;;;5.49;86.09
66681;BME280;53575;51.366;12.350;2023-05-01T00:42:52;100726.28;;;5.49;85.59
66681;BME280;53575;51.366;12.350;2023-05-01T00:45:17;100730.75;;;5.54;84.85
66681;BME280;53575;51.366;12.350;2023-05-01T00:47:43;100727.38;;;5.60;86.78
66681;BME280;53575;51.366;12.350;2023-05-01T00:50:08;100721.69;;;5.76;83.72
66681;BME280;53575;51.366;12.350;2023-05-01T00:52:34;100713.94;;;5.79;81.60
66681;BME280;53575;51.366;12.350;2023-05-01T00:55:00;100710.53;;;5.82;82.05
66681;BME280;53575;51.366;12.350;2023-05-01T00:57:26;100711.75;;;5.55;80.85
66681;BME280;53575;51.366;12.350;2023-05-01T00:59:51;100711.41;;;5.40;81.15
66681;BME280;53575;51.366;12.350;2023-05-01T01:02:16;100710.78;;;5.52;83.64
66681;BME280;53575;51.366;12.350;2023-05-01T01:04:44;100703.16;;;5.58;86.41
66681;BME280;53575;51.366;12.350;2023-05-01T01:15:25;100686.13;;;5.72;80.44
66681;BME280;53575;51.366;12.350;2023-05-01T01:20:56;100683.38;;;5.65;79.92
66681;BME280;53575;51.366;12.350;2023-05-01T01:26:11;100673.94;;;5.67;79.76
66681;BME280;53575;51.366;12.350;2023-05-01T01:34:18;100672.69;;;5.48;78.67
66681;BME280;53575;51.366;12.350;2023-05-01T01:36:57;100670.19;;;5.51;79.52
66681;BME280;53575;51.366;12.350;2023-05-01T01:39:36;100678.03;;;5.54;80.18
66681;BME280;53575;51.366;12.350;2023-05-01T01:42:09;100667.34;;;5.38;79.89
66681;BME280;53575;51.366;12.350;2023-05-01T01:44:50;100672.47;;;5.35;79.67
66681;BME280;53575;51.366;12.350;2023-05-01T01:47:17;100667.13;;;5.29;81.52
66681;BME280;53575;51.366;12.350;2023-05-01T01:49:48;100655.28;;;5.41;80.38
66681;BME280;53575;51.366;12.350;2023-05-01T01:52:15;100661.31;;;5.40;81.23
66681;BME280;53575;51.366;12.350;2023-05-01T01:54:48;100656.03;;;5.35;80.72
66681;BME280;53575;51.366;12.350;2023-05-01T01:57:15;100657.09;;;5.45;78.19
66681;BME280;53575;51.366;12.350;2023-05-01T01:59:43;100658.00;;;5.47;81.01
66681;BME280;53575;51.366;12.350;2023-05-01T02:02:09;100645.03;;;5.47;78.34
66681;BME280;53575;51.366;12.350;2023-05-01T02:04:37;100651.88;;;5.43;76.43
66681;BME280;53575;51.366;12.350;2023-05-01T02:07:05;100651.00;;;5.43;77.66
66681;BME280;53575;51.366;12.350;2023-05-01T02:09:31;100646.19;;;5.61;82.84
66681;BME280;53575;51.366;12.350;2023-05-01T02:11:59;100639.00;;;5.48;80.38
66681;BME280;53575;51.366;12.350;2023-05-01T02:14:26;100643.34;;;5.49;77.26
66681;BME280;53575;51.366;12.350;2023-05-01T02:16:52;100635.69;;;5.55;79.28
66681;BME280;53575;51.366;12.350;2023-05-01T02:19:19;100634.91;;;5.59;80.82
66681;BME280;53575;51.366;12.350;2023-05-01T02:21:45;100631.66;;;5.71;79.44
66681;BME280;53575;51.366;12.350;2023-05-01T02:24:13;100628.88;;;5.60;79.90
66681;BME280;53575;51.366;12.350;2023-05-01T02:26:44;100627.94;;;5.56;79.34
66681;BME280;53575;51.366;12.350;2023-05-01T02:29:12;100625.38;;;5.58;81.86
66681;BME280;53575;51.366;12.350;2023-05-01T02:31:37;100613.03;;;5.45;81.82
66681;BME280;53575;51.366;12.350;2023-05-01T02:34:02;100619.84;;;5.40;83.25
66681;BME280;53575;51.366;12.350;2023-05-01T02:36:28;100605.38;;;5.51;82.39
66681;BME280;53575;51.366;12.350;2023-05-01T02:38:54;100611.28;;;5.45;84.04
66681;BME280;53575;51.366;12.350;2023-05-01T02:41:20;100603.28;;;5.33;82.59
66681;BME280;53575;51.366;12.350;2023-05-01T02:43:50;100606.00;;;5.39;83.81
66681;BME280;53575;51.366;12.350;2023-05-01T02:46:17;100598.03;;;5.30;79.87
66681;BME280;53575;51.366;12.350;2023-05-01T02:48:47;100602.56;;;5.38;81.58
66681;BME280;53575;51.366;12.350;2023-05-01T02:51:13;100597.97;;;5.25;80.64
66681;BME280;53575;51.366;12.350;2023-05-01T02:53:38;100599.28;;;5.05;81.22
66681;BME280;53575;51.366;12.350;2023-05-01T02:56:04;100598.25;;;4.97;81.38
66681;BME280;53575;51.366;12.350;2023-05-01T02:58:32;100590.59;;;5.03;82.31
66681;BME280;53575;51.366;12.350;2023-05-01T03:00:58;100596.16;;;5.21;83.38
66681;BME280;53575;51.366;12.350;2023-05-01T03:03:23;100584.75;;;5.13;82.78
66681;BME280;53575;51.366;12.350;2023-05-01T03:05:49;100584.06;;;4.79;82.76
66681;BME280;53575;51.366;12.350;2023-05-01T03:08:15;100577.94;;;4.76;82.95
66681;BME280;53575;51.366;12.350;2023-05-01T03:10:41;100576.22;;;4.76;84.03
66681;BME280;53575;51.366;12.350;2023-05-01T03:13:07;100572.50;;;5.04;85.67
66681;BME280;53575;51.366;12.350;2023-05-01T03:15:34;100569.38;;;5.21;82.86
66681;BME280;53575;51.366;12.350;2023-05-01T03:18:00;100560.66;;;5.17;82.49
66681;BME280;53575;51.366;12.350;2023-05-01T03:20:25;100565.59;;;5.05;81.54
66681;BME280;53575;51.366;12.350;2023-05-01T03:22:50;100567.47;;;5.12;83.59
66681;BME280;53575;51.366;12.350;2023-05-01T03:25:16;100561.63;;;5.22;84.68
66681;BME280;53575;51.366;12.350;2023-05-01T03:27:41;100562.94;;;5.02;82.96
66681;BME280;53575;51.366;12.350;2023-05-01T03:30:07;100560.53;;;5.11;81.52
66681;BME280;53575;51.366;12.350;2023-05-01T03:32:34;100547.28;;;5.40;82.85
66681;BME280;53575;51.366;12.350;2023-05-01T03:35:01;100549.19;;;5.04;80.36
66681;BME280;53575;51.366;12.350;2023-05-01T03:37:27;100549.28;;;5.09;82.45
66681;BME280;53575;51.366;12.350;2023-05-01T03:39:53;100545.63;;;5.43;82.64
66681;BME280;53575;51.366;12.350;2023-05-01T03:42:18;100536.91;;;5.40;80.19
66681;BME280;53575;51.366;12.350;2023-05-01T03:44:44;100529.88;;;5.32;80.48
66681;BME280;53575;51.366;12.350;2023-05-01T03:47:09;100537.19;;;5.08;80.94
66681;BME280;53575;51.366;12.350;2023-05-01T03:49:35;100530.44;;;5.18;80.94
66681;BME280;53575;51.366;12.350;2023-05-01T03:52:00;100527.41;;;5.40;80.46
66681;BME280;53575;51.366;12.350;2023-05-01T03:54:25;100524.66;;;5.31;80.84
66681;BME280;53575;51.366;12.350;2023-05-01T03:56:51;100528.19;;;5.34;79.41
66681;BME280;53575;51.366;12.350;2023-05-01T03:59:16;100522.25;;;5.42;78.75
66681;BME280;53575;51.366;12.350;2023-05-01T04:01:42;100527.56;;;5.48;80.80
66681;BME280;53575;51.366;12.350;2023-05-01T04:04:08;100527.53;;;5.46;79.69
66681;BME280;53575;51.366;12.350;2023-05-01T04:06:34;100521.50;;;5.49;81.62
66681;BME280;53575;51.366;12.350;2023-05-01T04:09:00;100522.56;;;5.58;84.17
66681;BME280;53575;51.366;12.350;2023-05-01T04:11:25;100517.13;;;5.45;82.95
66681;BME280;53575;51.366;12.350;2023-05-01T04:13:51;100516.13;;;5.36;79.63
66681;BME280;53575;51.366;12.350;2023-05-01T04:16:17;100519.19;;;5.64;80.26
66681;BME280;53575;51.366;12.350;2023-05-01T04:18:42;100518.38;;;5.65;79.68
66681;BME280;53575;51.366;12.350;2023-05-01T04:21:07;100521.91;;;5.70;79.56
66681;BME280;53575;51.366;12.350;2023-05-01T04:23:33;100523.97;;;5.41;78.33
66681;BME280;53575;51.366;12.350;2023-05-01T04:25:58;100529.28;;;5.49;79.48
66681;BME280;53575;51.366;12.350;2023-05-01T04:28:24;100526.69;;;5.49;80.82
66681;BME280;53575;51.366;12.350;2023-05-01T04:30:49;100533.53;;;5.42;81.13
66681;BME280;53575;51.366;12.350;2023-05-01T04:33:15;100535.31;;;5.46;81.26
66681;BME280;53575;51.366;12.350;2023-05-01T04:35:40;100529.28;;;5.47;81.64
66681;BME280;53575;51.366;12.350;2023-05-01T04:38:06;100525.09;;;5.54;81.40
66681;BME280;53575;51.366;12.350;2023-05-01T04:40:32;100527.81;;;5.63;80.71
66681;BME280;53575;51.366;12.350;2023-05-01T04:42:58;100521.72;;;5.59;81.55
66681;BME280;53575;51.366;12.350;2023-05-01T04:45:24;100518.25;;;5.60;81.70
66681;BME280;53575;51.366;12.350;2023-05-01T04:47:49;100523.44;;;5.59;81.67
66681;BME280;53575;51.366;12.350;2023-05-01T04:50:15;100521.22;;;5.80;81.17
66681;BME280;53575;51.366;12.350;2023-05-01T04:52:40;100514.38;;;5.85;79.88
66681;BME280;53575;51.366;12.350;2023-05-01T04:55:06;100518.09;;;6.00;80.71
66681;BME280;53575;51.366;12.350;2023-05-01T04:57:32;100512.81;;;5.94;80.51
66681;BME280;53575;51.366;12.350;2023-05-01T04:59:57;100515.41;;;5.94;82.35
66681;BME280;53575;51.366;12.350;2023-05-01T05:02:23;100516.25;;;5.93;82.32
66681;BME280;53575;51.366;12.350;2023-05-01T05:04:48;100518.94;;;5.99;78.65
66681;BME280;53575;51.366;12.350;2023-05-01T05:07:14;100517.59;;;6.24;79.12
66681;BME280;53575;51.366;12.350;2023-05-01T05:09:40;100524.78;;;6.42;81.14
66681;BME280;53575;51.366;12.350;2023-05-01T05:12:05;100515.44;;;6.56;78.37
66681;BME280;53575;51.366;12.350;2023-05-01T05:14:31;100518.16;;;6.65;78.11
66681;BME280;53575;51.366;12.350;2023-05-01T05:16:56;100519.91;;;6.66;75.55
66681;BME280;53575;51.366;12.350;2023-05-01T05:19:21;100519.22;;;6.81;73.64
66681;BME280;53575;51.366;12.350;2023-05-01T05:21:47;100523.66;;;6.90;74.41
66681;BME280;53575;51.366;12.350;2023-05-01T05:24:13;100520.38;;;7.03;75.00
66681;BME280;53575;51.366;12.350;2023-05-01T05:26:38;100511.97;;;7.27;73.84
66681;BME280;53575;51.366;12.350;2023-05-01T05:29:04;100506.78;;;7.31;73.14
66681;BME280;53575;51.366;12.350;2023-05-01T05:31:29;100511.31;;;7.49;72.94
66681;BME280;53575;51.366;12.350;2023-05-01T05:33:55;100509.63;;;7.53;73.18
66681;BME280;53575;51.366;12.350;2023-05-01T05:36:20;100506.34;;;7.75;72.77
66681;BME280;53575;51.366;12.350;2023-05-01T05:38:45;100505.59;;;7.92;73.05
66681;BME280;53575;51.366;12.350;2023-05-01T05:41:11;100505.56;;;7.87;70.90
66681;BME280;53575;51.366;12.350;2023-05-01T05:43:36;100496.09;;;7.97;72.47
66681;BME280;53575;51.366;12.350;2023-05-01T05:46:02;100498.72;;;8.00;72.73
66681;BME280;53575;51.366;12.350;2023-05-01T05:48:27;100498.75;;;8.04;69.76
66681;BME280;53575;51.366;12.350;2023-05-01T05:50:53;100501.34;;;8.01;70.51
66681;BME280;53575;51.366;12.350;2023-05-01T05:53:19;100491.69;;;7.87;71.69
66681;BME280;53575;51.366;12.350;2023-05-01T05:55:47;100497.00;;;7.99;71.09
66681;BME280;53575;51.366;12.350;2023-05-01T05:58:13;100497.00;;;8.00;71.52
66681;BME280;53575;51.366;12.350;2023-05-01T06:00:45;100496.94;;;7.91;71.04
66681;BME280;53575;51.366;12.350;2023-05-01T06:03:11;100493.66;;;8.17;72.36
66681;BME280;53575;51.366;12.350;2023-05-01T06:05:36;100494.50;;;8.16;70.28
66681;BME280;53575;51.366;12.350;2023-05-01T06:08:02;100492.75;;;8.15;69.98
66681;BME280;53575;51.366;12.350;2023-05-01T06:10:28;100481.47;;;8.14;72.49
66681;BME280;53575;51.366;12.350;2023-05-01T06:12:53;100477.25;;;8.35;72.44
66681;BME280;53575;51.366;12.350;2023-05-01T06:15:18;100478.09;;;8.30;70.32
66681;BME280;53575;51.366;12.350;2023-05-01T06:17:44;100481.56;;;8.26;72.05
66681;BME280;53575;51.366;12.350;2023-05-01T06:20:10;100486.81;;;8.36;72.96
66681;BME280;53575;51.366;12.350;2023-05-01T06:22:35;100489.38;;;8.29;72.86
66681;BME280;53575;51.366;12.350;2023-05-01T06:25:01;100477.22;;;8.25;73.42
66681;BME280;53575;51.366;12.350;2023-05-01T06:27:26;100477.09;;;8.09;73.18
66681;BME280;53575;51.366;12.350;2023-05-01T06:29:52;100481.50;;;8.17;72.88
66681;BME280;53575;51.366;12.350;2023-05-01T06:32:17;100477.22;;;8.30;73.06
66681;BME280;53575;51.366;12.350;2023-05-01T06:34:43;100478.28;;;8.58;72.44
66681;BME280;53575;51.366;12.350;2023-05-01T06:37:08;100473.06;;;8.57;70.79
66681;BME280;53575;51.366;12.350;2023-05-01T06:39:33;100473.91;;;8.54;69.44
66681;BME280;53575;51.366;12.350;2023-05-01T06:41:59;100472.28;;;8.74;69.37
66681;BME280;53575;51.366;12.350;2023-05-01T06:44:25;100470.53;;;8.76;70.64
66681;BME280;53575;51.366;12.350;2023-05-01T06:46:50;100467.91;;;8.73;70.36
66681;BME280;53575;51.366;12.350;2023-05-01T06:49:16;100456.66;;;8.84;67.66
66681;BME280;53575;51.366;12.350;2023-05-01T06:51:41;100457.56;;;8.90;67.11
66681;BME280;53575;51.366;12.350;2023-05-01T06:54:07;100464.53;;;9.02;66.58
66681;BME280;53575;51.366;12.350;2023-05-01T06:56:32;100459.38;;;9.13;66.73
66681;BME280;53575;51.366;12.350;2023-05-01T06:58:58;100454.16;;;9.23;66.48
66681;BME280;53575;51.366;12.350;2023-05-01T07:01:23;100457.66;;;9.32;68.46
66681;BME280;53575;51.366;12.350;2023-05-01T07:03:49;100454.16;;;9.33;66.20
66681;BME280;53575;51.366;12.350;2023-05-01T07:06:14;100460.28;;;9.55;64.57
66681;BME280;53575;51.366;12.350;2023-05-01T07:08:39;100454.19;;;9.74;64.04
66681;BME280;53575;51.366;12.350;2023-05-01T07:11:05;100452.44;;;9.84;63.36
66681;BME280;53575;51.366;12.350;2023-05-01T07:13:31;100447.22;;;9.85;62.42
66681;BME280;53575;51.366;12.350;2023-05-01T07:15:57;100449.81;;;9.91;61.90
66681;BME280;53575;51.366;12.350;2023-05-01T07:18:22;100450.66;;;10.06;61.97
66681;BME280;53575;51.366;12.350;2023-05-01T07:20:48;100442.78;;;10.24;61.61
66681;BME280;53575;51.366;12.350;2023-05-01T07:23:14;100443.69;;;10.26;60.68
66681;BME280;53575;51.366;12.350;2023-05-01T07:25:40;100443.69;;;10.31;61.03
66681;BME280;53575;51.366;12.350;2023-05-01T07:28:05;100446.22;;;10.49;60.75
66681;BME280;53575;51.366;12.350;2023-05-01T07:30:32;100439.22;;;10.56;60.33
66681;BME280;53575;51.366;12.350;2023-05-01T07:32:58;100425.25;;;10.63;59.68
66681;BME280;53575;51.366;12.350;2023-05-01T07:35:23;100435.63;;;10.80;59.77
66681;BME280;53575;51.366;12.350;2023-05-01T07:37:49;100431.22;;;10.91;58.40
66681;BME280;53575;51.366;12.350;2023-05-01T07:40:16;100428.56;;;11.00;58.36
66681;BME280;53575;51.366;12.350;2023-05-01T07:42:41;100425.03;;;11.03;57.78
66681;BME280;53575;51.366;12.350;2023-05-01T07:45:07;100426.78;;;11.05;58.53
66681;BME280;53575;51.366;12.350;2023-05-01T07:47:33;100423.22;;;11.17;57.41
66681;BME280;53575;51.366;12.350;2023-05-01T07:49:58;100425.84;;;11.12;57.97
66681;BME280;53575;51.366;12.350;2023-05-01T07:52:25;100422.38;;;11.12;58.46
66681;BME280;53575;51.366;12.350;2023-05-01T07:54:50;100417.09;;;11.19;58.01
66681;BME280;53575;51.366;12.350;2023-05-01T07:57:15;100417.94;;;11.21;58.04
66681;BME280;53575;51.366;12.350;2023-05-01T07:59:41;100421.31;;;11.36;57.40
66681;BME280;53575;51.366;12.350;2023-05-01T08:02:06;100416.84;;;11.53;56.15
66681;BME280;53575;51.366;12.350;2023-05-01T08:04:31;100416.03;;;11.43;57.54
66681;BME280;53575;51.366;12.350;2023-05-01T08:06:57;100419.38;;;11.59;56.00
66681;BME280;53575;51.366;12.350;2023-05-01T08:09:22;100416.78;;;11.58;55.70
66681;BME280;53575;51.366;12.350;2023-05-01T08:11:47;100408.13;;;11.51;57.51
66681;BME280;53575;51.366;12.350;2023-05-01T08:14:13;100415.03;;;11.58;55.70
66681;BME280;53575;51.366;12.350;2023-05-01T08:16:41;100407.03;;;11.77;55.96
66681;BME280;53575;51.366;12.350;2023-05-01T08:19:07;100409.66;;;11.77;55.24
66681;BME280;53575;51.366;12.350;2023-05-01T08:21:33;100401.75;;;11.84;54.44
66681;BME280;53575;51.366;12.350;2023-05-01T08:23:58;100411.19;;;12.01;53.93
66681;BME280;53575;51.366;12.350;2023-05-01T08:26:23;100402.41;;;12.06;53.67
66681;BME280;53575;51.366;12.350;2023-05-01T08:28:49;100404.78;;;12.26;54.54
66681;BME280;53575;51.366;12.350;2023-05-01T08:31:15;100392.31;;;12.48;52.52
66681;BME280;53575;51.366;12.350;2023-05-01T08:33:40;100391.22;;;12.63;53.05
66681;BME280;53575;51.366;12.350;2023-05-01T08:36:08;100392.00;;;12.71;50.73
66681;BME280;53575;51.366;12.350;2023-05-01T08:38:34;100397.91;;;12.87;50.69
66681;BME280;53575;51.366;12.350;2023-05-01T08:41:00;100391.50;;;13.06;49.51
66681;BME280;53575;51.366;12.350;2023-05-01T08:43:32;100398.13;;;13.32;50.18
66681;BME280;53575;51.366;12.350;2023-05-01T08:45:58;100396.38;;;13.32;50.05
66681;BME280;53575;51.366;12.350;2023-05-01T08:48:30;100391.69;;;13.51;49.32
66681;BME280;53575;51.366;12.350;2023-05-01T08:50:57;100387.94;;;13.64;48.72
66681;BME280;53575;51.366;12.350;2023-05-01T08:53:25;100389.63;;;13.69;47.82
66681;BME280;53575;51.366;12.350;2023-05-01T08:55:51;100391.19;;;13.79;47.91
66681;BME280;53575;51.366;12.350;2023-05-01T08:58:18;100372.56;;;13.91;47.98
66681;BME280;53575;51.366;12.350;2023-05-01T09:00:46;100374.81;;;14.11;47.25
66681;BME280;53575;51.366;12.350;2023-05-01T09:03:12;100365.06;;;14.18;46.55
66681;BME280;53575;51.366;12.350;2023-05-01T09:05:40;100359.91;;;14.11;47.45
66681;BME280;53575;51.366;12.350;2023-05-01T09:08:06;100364.16;;;14.19;47.09
66681;BME280;53575;51.366;12.350;2023-05-01T09:10:32;100365.59;;;14.35;47.08
66681;BME280;53575;51.366;12.350;2023-05-01T09:13:00;100357.31;;;14.55;46.81
66681;BME280;53575;51.366;12.350;2023-05-01T09:15:27;100358.91;;;14.60;45.33
66681;BME280;53575;51.366;12.350;2023-05-01T09:17:53;100349.75;;;14.78;43.97
66681;BME280;53575;51.366;12.350;2023-05-01T09:20:19;100348.75;;;14.84;44.51
66681;BME280;53575;51.366;12.350;2023-05-01T09:22:45;100349.22;;;15.01;44.39
66681;BME280;53575;51.366;12.350;2023-05-01T09:25:10;100343.66;;;15.14;43.96
66681;BME280;53575;51.366;12.350;2023-05-01T09:27:39;100340.50;;;15.35;44.29
66681;BME280;53575;51.366;12.350;2023-05-01T09:30:04;100330.31;;;15.55;44.24
66681;BME280;53575;51.366;12.350;2023-05-01T09:32:31;100338.75;;;15.70;41.54
66681;BME280;53575;51.366;12.350;2023-05-01T09:35:13;100330.16;;;15.94;41.39
66681;BME280;53575;51.366;12.350;2023-05-01T09:37:39;100324.00;;;16.26;41.36
66681;BME280;53575;51.366;12.350;2023-05-01T09:40:09;100322.75;;;16.68;41.43
66681;BME280;53575;51.366;12.350;2023-05-01T09:42:38;100326.59;;;16.86;40.80
66681;BME280;53575;51.366;12.350;2023-05-01T09:45:13;100318.34;;;16.96;39.17
66681;BME280;53575;51.366;12.350;2023-05-01T09:47:42;100308.59;;;16.98;39.08
66681;BME280;53575;51.366;12.350;2023-05-01T09:50:09;100304.09;;;17.02;39.31
66681;BME280;53575;51.366;12.350;2023-05-01T09:52:35;100305.59;;;17.09;39.30
66681;BME280;53575;51.366;12.350;2023-05-01T09:55:17;100304.41;;;17.44;38.70
66681;BME280;53575;51.366;12.350;2023-05-01T09:57:44;100300.50;;;17.56;38.31
66681;BME280;53575;51.366;12.350;2023-05-01T10:00:12;100301.28;;;17.58;39.78
66681;BME280;53575;51.366;12.350;2023-05-01T10:02:40;100299.75;;;17.51;38.09
66681;BME280;53575;51.366;12.350;2023-05-01T10:05:08;100294.00;;;17.40;38.42
66681;BME280;53575;51.366;12.350;2023-05-01T10:07:33;100296.97;;;17.30;38.53
66681;BME280;53575;51.366;12.350;2023-05-01T10:10:15;100288.78;;;17.12;38.08
66681;BME280;53575;51.366;12.350;2023-05-01T10:12:40;100286.97;;;17.14;39.16
66681;BME280;53575;51.366;12.350;2023-05-01T10:15:06;100280.06;;;17.10;38.57
66681;BME280;53575;51.366;12.350;2023-05-01T10:17:33;100277.22;;;17.16;38.68
66681;BME280;53575;51.366;12.350;2023-05-01T10:19:59;100276.91;;;17.25;39.20
66681;BME280;53575;51.366;12.350;2023-05-01T10:22:24;100269.50;;;17.36;39.23
66681;BME280;53575;51.366;12.350;2023-05-01T10:24:50;100280.78;;;17.40;39.12
66681;BME280;53575;51.366;12.350;2023-05-01T10:27:17;100269.53;;;17.60;38.74
66681;BME280;53575;51.366;12.350;2023-05-01T10:29:45;100271.09;;;17.40;39.22
66681;BME280;53575;51.366;12.350;2023-05-01T10:32:12;100278.97;;;17.42;38.55
66681;BME280;53575;51.366;12.350;2023-05-01T10:34:42;100264.25;;;17.60;37.89
66681;BME280;53575;51.366;12.350;2023-05-01T10:37:13;100268.03;;;17.52;38.20
66681;BME280;53575;51.366;12.350;2023-05-01T10:39:41;100252.06;;;17.56;37.75
66681;BME280;53575;51.366;12.350;2023-05-01T10:42:07;100253.09;;;17.51;37.41
66681;BME280;53575;51.366;12.350;2023-05-01T10:44:39;100251.56;;;17.94;37.23
66681;BME280;53575;51.366;12.350;2023-05-01T10:50:06;100234.84;;;18.39;37.37
66681;BME280;53575;51.366;12.350;2023-05-01T10:55:46;100231.63;;;18.53;35.21
66681;BME280;53575;51.366;12.350;2023-05-01T10:58:13;100224.75;;;18.93;35.92
66681;BME280;53575;51.366;12.350;2023-05-01T11:01:26;100221.50;;;19.27;34.37
66681;BME280;53575;51.366;12.350;2023-05-01T11:03:53;100203.22;;;19.21;34.44
66681;BME280;53575;51.366;12.350;2023-05-01T11:06:18;100216.84;;;18.91;34.25
66681;BME280;53575;51.366;12.350;2023-05-01T11:08:44;100204.47;;;19.33;34.21
66681;BME280;53575;51.366;12.350;2023-05-01T11:13:58;100201.88;;;20.10;32.98
66681;BME280;53575;51.366;12.350;2023-05-01T11:18:59;100198.44;;;20.08;31.74
66681;BME280;53575;51.366;12.350;2023-05-01T11:21:32;100193.13;;;19.89;33.07
66681;BME280;53575;51.366;12.350;2023-05-01T11:24:01;100187.69;;;19.73;32.73
66681;BME280;53575;51.366;12.350;2023-05-01T11:26:28;100182.94;;;19.99;33.63
66681;BME280;53575;51.366;12.350;2023-05-01T11:28:56;100181.28;;;20.34;33.43
66681;BME280;53575;51.366;12.350;2023-05-01T11:31:22;100173.50;;;20.29;33.15
66681;BME280;53575;51.366;12.350;2023-05-01T11:33:47;100161.88;;;20.51;32.23
66681;BME280;53575;51.366;12.350;2023-05-01T11:36:13;100163.16;;;20.06;32.50
66681;BME280;53575;51.366;12.350;2023-05-01T11:38:52;100155.56;;;19.98;33.29
66681;BME280;53575;51.366;12.350;2023-05-01T11:41:20;100151.09;;;20.17;33.74
66681;BME280;53575;51.366;12.350;2023-05-01T11:43:49;100145.88;;;20.33;33.91
66681;BME280;53575;51.366;12.350;2023-05-01T11:46:31;100141.38;;;20.35;34.18
66681;BME280;53575;51.366;12.350;2023-05-01T11:48:59;100144.00;;;20.72;32.98
66681;BME280;53575;51.366;12.350;2023-05-01T11:51:26;100139.59;;;20.72;31.86
66681;BME280;53575;51.366;12.350;2023-05-01T11:54:08;100141.13;;;20.59;34.28
66681;BME280;53575;51.366;12.350;2023-05-01T11:56:35;100135.78;;;20.41;32.43
66681;BME280;53575;51.366;12.350;2023-05-01T11:59:14;100139.25;;;20.25;32.21
66681;BME280;53575;51.366;12.350;2023-05-01T12:01:41;100132.66;;;20.14;32.73
66681;BME280;53575;51.366;12.350;2023-05-01T12:04:09;100121.59;;;20.60;32.13
66681;BME280;53575;51.366;12.350;2023-05-01T12:06:43;100117.47;;;20.89;33.74
66681;BME280;53575;51.366;12.350;2023-05-01T12:11:37;100119.44;;;21.52;33.99
66681;BME280;53575;51.366;12.350;2023-05-01T12:14:03;100122.66;;;21.74;32.89
66681;BME280;53575;51.366;12.350;2023-05-01T12:16:29;100119.22;;;22.04;33.13
66681;BME280;53575;51.366;12.350;2023-05-01T12:18:55;100110.56;;;22.16;32.00
66681;BME280;53575;51.366;12.350;2023-05-01T12:21:20;100105.34;;;21.99;31.87
66681;BME280;53575;51.366;12.350;2023-05-01T12:23:46;100107.69;;;21.56;33.00
66681;BME280;53575;51.366;12.350;2023-05-01T12:26:20;100107.06;;;22.16;32.65
66681;BME280;53575;51.366;12.350;2023-05-01T12:29:04;100096.81;;;22.24;31.94
66681;BME280;53575;51.366;12.350;2023-05-01T12:31:30;100102.09;;;22.55;32.30
66681;BME280;53575;51.366;12.350;2023-05-01T12:33:58;100099.09;;;22.90;31.19
66681;BME280;53575;51.366;12.350;2023-05-01T12:36:25;100096.00;;;22.98;31.46
66681;BME280;53575;51.366;12.350;2023-05-01T12:39:10;100098.88;;;23.09;29.90
66681;BME280;53575;51.366;12.350;2023-05-01T12:41:44;100090.34;;;22.44;30.02
66681;BME280;53575;51.366;12.350;2023-05-01T12:44:20;100092.78;;;22.32;30.63
66681;BME280;53575;51.366;12.350;2023-05-01T12:46:59;100085.59;;;22.03;30.78
66681;BME280;53575;51.366;12.350;2023-05-01T12:49:26;100077.72;;;22.61;31.47
66681;BME280;53575;51.366;12.350;2023-05-01T12:51:56;100080.19;;;22.95;31.48
66681;BME280;53575;51.366;12.350;2023-05-01T12:54:36;100077.03;;;23.45;28.34
66681;BME280;53575;51.366;12.350;2023-05-01T12:57:13;100066.59;;;23.28;29.79
66681;BME280;53575;51.366;12.350;2023-05-01T12:59:40;100071.44;;;23.35;30.79
66681;BME280;53575;51.366;12.350;2023-05-01T13:02:13;100059.59;;;23.54;30.92
66681;BME280;53575;51.366;12.350;2023-05-01T13:04:44;100060.03;;;23.89;29.56
66681;BME280;53575;51.366;12.350;2023-05-01T13:07:14;100059.66;;;24.35;29.01
66681;BME280;53575;51.366;12.350;2023-05-01T13:09:57;100056.31;;;24.59;28.68
66681;BME280;53575;51.366;12.350;2023-05-01T13:12:26;100055.56;;;24.29;29.28
66681;BME280;53575;51.366;12.350;2023-05-01T13:14:52;100063.75;;;24.41;28.42
66681;BME280;53575;51.366;12.350;2023-05-01T13:17:31;100056.38;;;24.17;28.96
66681;BME280;53575;51.366;12.350;2023-05-01T13:19:57;100051.38;;;23.86;29.20